Time;durP1;ratioP1;P1;durP2;ratioP2;P2;SDS_P1;SDS_P2;PMS_P1;PMS_P2;Temp;Humidity;BMP_temperature;BMP_pressure;BME280_temperature;BME280_humidity;BME280_pressure;Samples;Min_cycle;Max_cycle;Signal;HPM_P1;HPM_P2
2022/07/28 00:01:38;;;;;;;7.43;4.18;;;16.60;99.90;;;;;;5068144;28;21309;-69
2022/07/28 00:04:04;;;;;;;9.60;4.55;;;16.70;99.90;;;;;;5067641;28;20513;-69
2022/07/28 00:06:30;;;;;;;11.20;4.80;;;16.70;99.90;;;;;;5068341;28;20028;-68
2022/07/28 00:08:55;;;;;;;8.43;4.53;;;16.50;99.90;;;;;;5067127;28;20032;-68
2022/07/28 00:11:21;;;;;;;11.52;4.63;;;16.40;99.90;;;;;;5068172;28;20037;-69
2022/07/28 00:13:47;;;;;;;7.00;4.20;;;16.30;99.90;;;;;;5066806;28;20033;-69
2022/07/28 00:16:13;;;;;;;7.18;4.07;;;16.30;99.90;;;;;;5068915;28;20142;-69
2022/07/28 00:18:39;;;;;;;9.45;4.35;;;16.30;99.90;;;;;;5067025;28;20115;-68
2022/07/28 00:21:04;;;;;;;7.65;4.70;;;16.30;99.90;;;;;;5068361;28;20032;-70
2022/07/28 00:23:30;;;;;;;7.50;4.90;;;16.30;99.90;;;;;;5066719;28;20028;-68
2022/07/28 00:25:56;;;;;;;9.00;4.38;;;16.20;99.90;;;;;;5068137;28;20462;-69
2022/07/28 00:28:21;;;;;;;9.93;4.85;;;16.30;99.90;;;;;;5067415;28;20079;-69
2022/07/28 00:30:47;;;;;;;7.35;4.80;;;16.20;99.90;;;;;;5067988;28;20040;-68
2022/07/28 00:33:12;;;;;;;8.02;4.43;;;16.10;99.90;;;;;;5066757;28;20119;-69
2022/07/28 00:35:38;;;;;;;8.93;4.22;;;16.10;99.90;;;;;;5068126;28;20036;-68
2022/07/28 00:38:04;;;;;;;8.68;4.95;;;16.00;99.90;;;;;;5066745;28;20040;-70
2022/07/28 00:43:14;;;;;;;6.43;4.13;;;16.10;99.90;;;;;;5070041;28;20043;-69
2022/07/28 00:45:40;;;;;;;10.20;4.85;;;16.00;99.90;;;;;;5072839;28;20037;-69
2022/07/28 00:48:05;;;;;;;7.13;4.32;;;16.00;99.90;;;;;;5069651;28;20056;-69
2022/07/28 00:50:31;;;;;;;10.38;4.80;;;16.00;99.90;;;;;;5071921;28;20100;-69
2022/07/28 00:52:57;;;;;;;11.02;5.15;;;16.00;99.90;;;;;;5070679;28;20024;-69
2022/07/28 00:55:23;;;;;;;7.32;4.32;;;16.00;99.90;;;;;;5071290;28;20094;-68
2022/07/28 00:57:49;;;;;;;14.88;4.50;;;16.00;99.90;;;;;;5071801;28;20106;-69
2022/07/28 01:00:15;;;;;;;8.13;4.60;;;16.00;99.90;;;;;;5069191;28;20037;-70
2022/07/28 01:02:42;;;;;;;8.60;4.60;;;16.00;99.90;;;;;;5071721;28;20517;-69
2022/07/28 01:05:08;;;;;;;7.05;4.15;;;16.10;99.90;;;;;;5070500;28;20268;-68
2022/07/28 01:07:44;;;;;;;6.78;4.30;;;16.20;99.90;;;;;;5069828;28;20033;-68
2022/07/28 01:10:43;;;;;;;8.20;4.35;;;16.20;99.90;;;;;;5068564;28;20052;-69
2022/07/28 01:13:16;;;;;;;8.35;4.38;;;16.10;99.90;;;;;;5070722;28;20028;-68
2022/07/28 01:15:52;;;;;;;6.60;4.20;;;16.00;99.90;;;;;;5071006;28;20109;-70
2022/07/28 01:18:24;;;;;;;9.68;4.95;;;16.00;99.90;;;;;;5053021;28;20393;-69
2022/07/28 01:20:53;;;;;;;11.43;4.68;;;16.00;99.90;;;;;;5070326;28;20033;-69
2022/07/28 01:23:31;;;;;;;6.75;4.60;;;16.00;99.90;;;;;;5070188;28;20059;-69
2022/07/28 01:26:21;;;;;;;8.93;4.10;;;16.00;99.90;;;;;;5070468;28;20029;-69
2022/07/28 01:28:56;;;;;;;9.73;4.68;;;16.00;99.90;;;;;;5063084;28;20044;-69
2022/07/28 01:31:25;;;;;;;6.80;5.00;;;16.00;99.90;;;;;;5060306;28;20033;-68
2022/07/28 01:34:02;;;;;;;8.10;4.93;;;16.10;99.90;;;;;;5056713;28;20033;-69
2022/07/28 01:36:32;;;;;;;6.53;4.68;;;16.10;99.90;;;;;;5070701;28;20383;-69
2022/07/28 01:38:59;;;;;;;7.70;4.38;;;16.00;99.90;;;;;;5069929;28;20041;-68
2022/07/28 01:41:30;;;;;;;9.80;4.70;;;15.90;99.90;;;;;;5070917;28;20037;-69
2022/07/28 01:44:07;;;;;;;8.52;4.68;;;16.00;99.90;;;;;;5070024;28;20033;-69
2022/07/28 01:46:34;;;;;;;10.00;4.40;;;15.90;99.90;;;;;;5069646;28;20024;-68
2022/07/28 01:49:01;;;;;;;7.55;5.13;;;15.90;99.90;;;;;;5069103;28;20131;-68
2022/07/28 01:51:29;;;;;;;9.63;4.50;;;16.00;99.90;;;;;;5070848;28;20025;-68
2022/07/28 01:53:58;;;;;;;7.03;4.85;;;15.90;99.90;;;;;;5051305;28;20370;-68
2022/07/28 01:56:27;;;;;;;7.45;4.82;;;15.90;99.90;;;;;;5069520;28;20104;-70
2022/07/28 01:58:55;;;;;;;7.03;4.55;;;15.80;99.90;;;;;;5051083;28;20028;-69
2022/07/28 02:01:24;;;;;;;8.10;4.75;;;15.80;99.90;;;;;;5066924;28;20494;-69
2022/07/28 02:03:51;;;;;;;9.90;5.07;;;15.70;99.90;;;;;;5067775;28;20035;-68
2022/07/28 02:06:19;;;;;;;9.73;5.03;;;15.70;99.90;;;;;;5068015;28;20074;-69
2022/07/28 02:08:47;;;;;;;10.60;5.10;;;15.70;99.90;;;;;;5068236;28;20033;-69
2022/07/28 02:13:57;;;;;;;6.97;4.43;;;15.60;99.90;;;;;;5070398;28;20035;-68
2022/07/28 02:16:25;;;;;;;11.88;4.80;;;15.60;99.90;;;;;;5068513;28;20403;-69
2022/07/28 02:18:52;;;;;;;8.88;4.93;;;15.60;99.90;;;;;;5069689;28;20028;-69
2022/07/28 02:21:19;;;;;;;7.43;4.70;;;15.60;99.90;;;;;;5069644;28;20043;-68
2022/07/28 02:23:47;;;;;;;8.75;4.63;;;15.60;99.90;;;;;;5068528;28;20375;-69
2022/07/28 02:26:15;;;;;;;6.72;4.70;;;15.50;99.90;;;;;;5069989;28;20025;-69
2022/07/28 02:28:42;;;;;;;13.90;5.25;;;15.50;99.90;;;;;;5067537;28;21570;-68
2022/07/28 02:31:18;;;;;;;10.55;5.03;;;15.40;99.90;;;;;;5067364;28;20486;-68
2022/07/28 02:33:46;;;;;;;13.50;5.10;;;15.30;99.90;;;;;;5067490;28;20052;-68
2022/07/28 02:36:27;;;;;;;8.63;5.13;;;15.20;99.90;;;;;;5069613;28;20040;-68
2022/07/28 02:38:58;;;;;;;7.95;5.00;;;15.10;99.90;;;;;;5068441;28;20470;-69
2022/07/28 02:41:26;;;;;;;8.95;4.82;;;15.10;99.90;;;;;;5062254;28;20063;-69
2022/07/28 02:43:55;;;;;;;7.43;5.15;;;15.10;99.90;;;;;;5051845;28;20020;-68
2022/07/28 02:46:42;;;;;;;7.97;5.20;;;15.00;99.90;;;;;;5069859;28;20059;-69
2022/07/28 02:49:14;;;;;;;8.35;5.03;;;15.00;99.90;;;;;;5068068;28;20478;-69
2022/07/28 02:51:42;;;;;;;9.35;5.07;;;15.00;99.90;;;;;;5070487;28;20532;-68
2022/07/28 02:54:09;;;;;;;12.25;5.88;;;14.90;99.90;;;;;;5068512;28;20068;-68
2022/07/28 02:56:35;;;;;;;11.98;5.55;;;14.90;99.90;;;;;;5066993;28;20033;-69
2022/07/28 02:59:02;;;;;;;8.52;5.90;;;14.80;99.90;;;;;;5067841;28;20021;-67
2022/07/28 03:01:29;;;;;;;12.02;5.32;;;14.70;99.90;;;;;;5068406;28;20028;-68
2022/07/28 03:03:55;;;;;;;8.52;5.40;;;14.70;99.90;;;;;;5068810;28;20044;-67
2022/07/28 03:06:22;;;;;;;8.80;5.00;;;14.60;99.90;;;;;;5068398;28;20028;-69
2022/07/28 03:08:49;;;;;;;8.80;5.43;;;14.60;99.90;;;;;;5066794;28;20056;-69
2022/07/28 03:11:15;;;;;;;8.02;5.47;;;14.60;99.90;;;;;;5067732;28;20166;-68
2022/07/28 03:13:41;;;;;;;9.65;5.40;;;14.60;99.90;;;;;;5068158;28;20710;-68
2022/07/28 03:16:07;;;;;;;7.90;5.00;;;14.50;99.90;;;;;;5064766;28;20040;-69
2022/07/28 03:18:32;;;;;;;9.45;5.35;;;14.50;99.90;;;;;;5067557;28;20048;-67
2022/07/28 03:20:59;;;;;;;6.72;5.30;;;14.50;99.90;;;;;;5065814;28;20063;-68
2022/07/28 03:23:35;;;;;;;7.43;5.40;;;14.60;99.90;;;;;;5072290;28;20059;-68
2022/07/28 03:26:16;;;;;;;9.13;5.45;;;14.50;99.90;;;;;;5068420;28;20032;-68
2022/07/28 03:28:43;;;;;;;9.82;5.65;;;14.40;99.90;;;;;;5068256;28;20044;-69
2022/07/28 03:31:10;;;;;;;9.35;5.78;;;14.40;99.90;;;;;;5068054;28;20107;-67
2022/07/28 03:33:37;;;;;;;10.27;5.63;;;14.50;99.90;;;;;;5069229;28;20440;-67
2022/07/28 03:36:08;;;;;;;10.07;5.50;;;14.50;99.90;;;;;;5068965;28;20089;-67
2022/07/28 03:38:42;;;;;;;14.05;6.25;;;14.50;99.90;;;;;;5058653;28;20028;-67
2022/07/28 03:41:10;;;;;;;8.48;5.68;;;14.50;99.90;;;;;;5067684;28;20032;-68
2022/07/28 03:43:36;;;;;;;8.25;5.75;;;14.50;99.90;;;;;;5068653;28;20052;-66
2022/07/28 03:46:02;;;;;;;9.70;5.65;;;14.50;99.90;;;;;;5065762;28;20029;-68
2022/07/28 03:48:29;;;;;;;10.13;5.60;;;14.30;99.90;;;;;;5069449;28;20040;-68
2022/07/28 03:50:55;;;;;;;11.80;6.07;;;14.40;99.90;;;;;;5068827;28;20039;-67
2022/07/28 03:53:24;;;;;;;10.85;5.90;;;14.20;99.90;;;;;;5068731;28;20021;-68
2022/07/28 03:55:50;;;;;;;14.23;6.05;;;14.20;99.90;;;;;;5048469;28;20033;-64
2022/07/28 03:58:20;;;;;;;9.82;6.10;;;14.20;99.90;;;;;;5069748;28;20043;-67
2022/07/28 04:00:48;;;;;;;9.75;6.07;;;14.10;99.90;;;;;;5069852;28;20051;-67
2022/07/28 04:03:14;;;;;;;11.35;6.15;;;14.10;99.90;;;;;;5065786;28;20035;-66
2022/07/28 04:05:39;;;;;;;8.07;6.00;;;14.20;99.90;;;;;;5068953;28;20056;-66
2022/07/28 04:08:05;;;;;;;8.32;5.80;;;14.20;99.90;;;;;;5067175;28;20068;-69
2022/07/28 04:10:31;;;;;;;8.82;5.95;;;14.30;99.90;;;;;;5068607;28;20052;-68
2022/07/28 04:12:58;;;;;;;11.60;6.25;;;14.40;99.90;;;;;;5069120;28;20033;-66
2022/07/28 04:15:25;;;;;;;15.32;5.80;;;14.50;99.90;;;;;;5066987;28;20087;-68
2022/07/28 04:17:52;;;;;;;11.82;6.15;;;14.50;99.90;;;;;;5071440;28;20623;-66
2022/07/28 04:20:20;;;;;;;13.93;6.15;;;14.50;99.90;;;;;;5070586;28;20621;-67
2022/07/28 04:22:47;;;;;;;11.65;6.20;;;14.60;99.90;;;;;;5070776;28;20029;-67
2022/07/28 04:25:13;;;;;;;11.70;6.70;;;14.50;99.90;;;;;;5070544;28;20061;-68
2022/07/28 04:27:40;;;;;;;9.73;6.30;;;14.60;99.90;;;;;;5070338;28;20033;-67
2022/07/28 04:30:11;;;;;;;12.93;6.47;;;14.70;99.90;;;;;;5069945;28;20024;-67
2022/07/28 04:32:38;;;;;;;12.00;6.25;;;14.70;99.90;;;;;;5071586;28;20413;-68
2022/07/28 04:35:05;;;;;;;9.75;5.95;;;14.80;99.90;;;;;;5071084;28;20071;-67
2022/07/28 04:37:31;;;;;;;12.85;6.25;;;14.90;99.90;;;;;;5071983;28;20090;-67
2022/07/28 04:39:57;;;;;;;8.38;5.63;;;15.00;99.90;;;;;;5072780;28;20056;-67
2022/07/28 04:42:22;;;;;;;8.85;5.78;;;15.10;99.90;;;;;;5071196;28;20562;-67
2022/07/28 04:44:48;;;;;;;16.75;5.82;;;15.20;99.90;;;;;;5071903;28;20032;-67
2022/07/28 04:47:15;;;;;;;24.80;6.68;;;15.20;99.90;;;;;;5070895;28;20049;-68
2022/07/28 04:49:41;;;;;;;13.88;6.10;;;15.20;99.90;;;;;;5071784;28;20039;-67
2022/07/28 04:52:07;;;;;;;11.65;6.20;;;15.20;99.90;;;;;;5071108;28;20044;-67
2022/07/28 04:54:34;;;;;;;13.40;6.60;;;15.20;99.90;;;;;;5072653;28;20070;-66
2022/07/28 04:57:00;;;;;;;10.75;5.95;;;15.30;99.90;;;;;;5069946;28;20051;-68
2022/07/28 04:59:26;;;;;;;11.70;6.40;;;15.30;99.90;;;;;;5069873;28;20032;-66
2022/07/28 05:01:52;;;;;;;12.63;6.30;;;15.30;99.90;;;;;;5078880;28;20111;-68
2022/07/28 05:04:18;;;;;;;11.35;6.05;;;15.40;99.90;;;;;;5075785;28;20032;-67
2022/07/28 05:06:43;;;;;;;8.55;5.90;;;15.60;99.90;;;;;;5071379;28;20029;-65
2022/07/28 05:09:09;;;;;;;11.45;5.80;;;15.70;99.90;;;;;;5068338;28;20048;-66
2022/07/28 05:11:35;;;;;;;13.18;6.22;;;15.60;99.90;;;;;;5071677;28;20032;-66
2022/07/28 05:14:00;;;;;;;15.73;6.28;;;15.60;99.90;;;;;;5070634;28;20016;-66
2022/07/28 05:16:26;;;;;;;11.60;5.85;;;15.60;99.90;;;;;;5036142;28;20045;-67
2022/07/28 05:18:52;;;;;;;12.85;5.70;;;15.60;99.90;;;;;;5028181;28;20044;-68
2022/07/28 05:21:18;;;;;;;10.90;5.68;;;15.60;99.90;;;;;;5029047;28;20546;-66
2022/07/28 05:23:43;;;;;;;8.90;5.85;;;15.60;99.90;;;;;;5032014;28;20533;-67
2022/07/28 05:26:09;;;;;;;12.00;6.20;;;15.80;99.90;;;;;;5028674;28;20391;-67
2022/07/28 05:28:34;;;;;;;12.52;6.45;;;16.00;99.90;;;;;;5030036;28;20049;-68
2022/07/28 05:31:00;;;;;;;9.50;5.97;;;16.00;99.90;;;;;;5031911;28;20103;-68
2022/07/28 05:33:26;;;;;;;9.93;6.30;;;16.10;99.90;;;;;;5028654;28;20032;-68
2022/07/28 05:35:56;;;;;;;9.23;5.78;;;16.30;99.90;;;;;;5030715;28;20095;-68
2022/07/28 05:38:22;;;;;;;9.70;6.30;;;16.40;99.90;;;;;;5028793;28;20491;-69
2022/07/28 05:40:48;;;;;;;10.77;5.97;;;16.70;99.90;;;;;;5031110;28;20096;-68
2022/07/28 05:43:15;;;;;;;15.85;6.53;;;16.70;99.90;;;;;;5028934;28;20117;-68
2022/07/28 05:45:40;;;;;;;13.32;6.53;;;16.90;99.90;;;;;;5029981;28;20635;-67
2022/07/28 05:48:06;;;;;;;10.38;5.72;;;17.00;99.90;;;;;;5029789;28;20124;-67
2022/07/28 05:50:32;;;;;;;13.23;5.95;;;17.10;99.90;;;;;;5027744;28;20064;-70
2022/07/28 05:52:57;;;;;;;9.23;5.90;;;17.10;99.90;;;;;;5029865;28;20136;-68
2022/07/28 05:55:23;;;;;;;11.70;6.30;;;17.20;99.90;;;;;;5030437;28;20044;-69
2022/07/28 05:57:49;;;;;;;8.38;6.00;;;17.20;99.90;;;;;;5016281;28;20030;-67
2022/07/28 06:00:20;;;;;;;12.00;6.85;;;17.20;99.90;;;;;;5026690;28;20044;-70
2022/07/28 06:02:48;;;;;;;12.40;6.43;;;17.30;99.90;;;;;;5027929;28;20107;-65
2022/07/28 06:05:16;;;;;;;13.73;7.05;;;17.40;99.90;;;;;;5029492;28;20398;-65
2022/07/28 06:07:42;;;;;;;12.57;6.40;;;17.40;99.90;;;;;;5029575;28;20038;-69
2022/07/28 06:10:09;;;;;;;10.57;6.70;;;17.60;99.90;;;;;;5030110;28;20040;-68
2022/07/28 06:12:55;;;;;;;14.00;7.25;;;17.70;99.90;;;;;;5029773;28;20156;-65
2022/07/28 06:15:26;;;;;;;13.13;7.00;;;17.80;99.90;;;;;;5037356;28;20055;-69
2022/07/28 06:17:54;;;;;;;10.15;6.95;;;17.90;99.90;;;;;;5070252;28;20036;-67
2022/07/28 06:20:24;;;;;;;12.27;7.03;;;17.90;99.90;;;;;;5067855;28;20048;-67
2022/07/28 06:22:53;;;;;;;14.63;7.70;;;18.00;99.90;;;;;;5069088;28;20059;-67
2022/07/28 06:25:27;;;;;;;9.75;6.47;;;18.00;99.90;;;;;;5080259;28;20040;-68
2022/07/28 06:27:59;;;;;;;14.05;6.88;;;18.20;99.90;;;;;;5067735;28;20089;-67
2022/07/28 06:30:26;;;;;;;14.25;6.65;;;18.60;99.90;;;;;;5067942;28;20052;-70
2022/07/28 06:32:52;;;;;;;11.60;6.63;;;18.80;99.90;;;;;;5048775;28;20031;-68
2022/07/28 06:35:18;;;;;;;12.93;6.88;;;18.90;99.90;;;;;;5060288;28;20029;-69
2022/07/28 06:37:46;;;;;;;12.77;7.18;;;19.10;99.90;;;;;;5054725;28;20036;-69
2022/07/28 06:40:13;;;;;;;10.02;6.57;;;19.20;99.90;;;;;;5064771;28;20505;-68
2022/07/28 06:42:39;;;;;;;9.43;6.43;;;19.40;99.90;;;;;;5069725;28;20032;-68
2022/07/28 06:45:06;;;;;;;12.23;7.70;;;19.60;99.90;;;;;;5070182;28;20036;-69
2022/07/28 06:47:32;;;;;;;12.50;7.10;;;19.70;99.90;;;;;;5050803;28;20431;-69
2022/07/28 06:49:58;;;;;;;13.38;6.60;;;19.70;99.90;;;;;;5065619;28;20154;-69
2022/07/28 06:52:24;;;;;;;16.98;7.68;;;19.50;99.90;;;;;;5068329;28;20385;-67
2022/07/28 06:54:51;;;;;;;12.65;6.43;;;19.60;99.90;;;;;;5069500;28;20029;-69
2022/07/28 06:57:18;;;;;;;14.15;6.95;;;19.80;99.90;;;;;;5066680;28;20033;-69
2022/07/28 06:59:45;;;;;;;12.13;6.93;;;19.90;99.90;;;;;;5066938;28;20082;-70
2022/07/28 07:02:11;;;;;;;11.90;7.07;;;20.10;99.90;;;;;;5063588;28;20029;-69
2022/07/28 07:04:37;;;;;;;12.90;6.93;;;20.30;99.90;;;;;;5066282;28;20039;-67
2022/07/28 07:07:03;;;;;;;9.38;6.70;;;20.50;99.90;;;;;;5069690;28;20462;-69
2022/07/28 07:09:29;;;;;;;11.73;6.90;;;20.60;99.90;;;;;;5069446;28;20152;-67
2022/07/28 07:11:55;;;;;;;12.68;8.35;;;20.80;99.90;;;;;;5087478;28;20477;-69
2022/07/28 07:14:21;;;;;;;10.63;7.07;;;20.90;99.90;;;;;;5067297;28;20520;-68
2022/07/28 07:16:46;;;;;;;16.50;8.27;;;20.80;99.90;;;;;;5067795;28;20126;-69
2022/07/28 07:19:12;;;;;;;12.40;7.43;;;20.70;99.90;;;;;;5068365;28;20033;-69
2022/07/28 07:21:38;;;;;;;13.20;7.75;;;20.80;99.90;;;;;;5069681;28;20508;-69
2022/07/28 07:24:03;;;;;;;16.08;8.10;;;20.70;99.90;;;;;;5066895;28;20468;-67
2022/07/28 07:26:29;;;;;;;16.02;7.78;;;20.70;99.90;;;;;;5063208;28;20790;-67
2022/07/28 07:28:55;;;;;;;15.15;8.15;;;20.80;99.90;;;;;;5062799;28;20048;-70
2022/07/28 07:31:20;;;;;;;10.82;7.72;;;20.90;99.90;;;;;;5067211;28;20102;-69
2022/07/28 07:33:46;;;;;;;16.60;8.13;;;21.10;99.90;;;;;;5069323;28;20118;-69
2022/07/28 07:36:12;;;;;;;14.30;8.50;;;21.00;99.90;;;;;;5068456;28;20386;-68
2022/07/28 07:38:38;;;;;;;18.50;8.52;;;21.10;99.90;;;;;;5068986;28;20105;-67
2022/07/28 07:41:04;;;;;;;16.13;8.52;;;21.20;99.90;;;;;;5067513;28;20028;-69
2022/07/28 07:43:30;;;;;;;13.00;8.10;;;21.50;99.90;;;;;;5067763;28;20711;-68
2022/07/28 07:45:56;;;;;;;13.68;8.68;;;21.60;99.90;;;;;;5068213;28;20033;-68
2022/07/28 07:48:22;;;;;;;20.77;9.02;;;21.90;99.90;;;;;;5067655;28;20149;-68
2022/07/28 07:50:47;;;;;;;13.88;7.80;;;21.80;99.90;;;;;;5067633;28;20474;-68
2022/07/28 07:53:13;;;;;;;16.38;8.75;;;21.80;99.90;;;;;;5067993;28;20047;-70
2022/07/28 07:55:39;;;;;;;15.23;8.88;;;22.10;99.90;;;;;;5069291;28;20031;-70
2022/07/28 07:58:05;;;;;;;13.82;8.55;;;22.30;99.90;;;;;;5067819;28;20123;-69
2022/07/28 08:00:31;;;;;;;13.73;7.78;;;22.40;99.90;;;;;;5067125;28;20386;-68
2022/07/28 08:02:58;;;;;;;13.05;8.35;;;22.70;99.90;;;;;;5067944;28;20516;-68
2022/07/28 08:05:23;;;;;;;13.32;8.57;;;22.80;99.90;;;;;;5067886;28;20029;-68
2022/07/28 08:07:49;;;;;;;15.68;8.05;;;22.70;99.90;;;;;;5068078;28;20064;-68
2022/07/28 08:10:15;;;;;;;14.88;8.73;;;22.60;99.90;;;;;;5068070;28;20048;-68
2022/07/28 08:12:41;;;;;;;13.13;7.70;;;22.90;99.90;;;;;;5066536;28;20036;-70
2022/07/28 08:15:07;;;;;;;13.00;8.45;;;23.10;99.90;;;;;;5066819;28;20036;-67
2022/07/28 08:17:33;;;;;;;13.18;7.72;;;23.30;99.90;;;;;;5066162;28;20040;-68
2022/07/28 08:19:59;;;;;;;14.27;7.72;;;23.40;99.90;;;;;;5068545;28;20025;-68
2022/07/28 08:22:24;;;;;;;14.23;8.52;;;23.60;99.90;;;;;;5067159;28;20044;-69
2022/07/28 08:24:50;;;;;;;14.98;7.88;;;23.60;99.90;;;;;;5069118;28;20486;-67
2022/07/28 08:27:17;;;;;;;18.52;8.50;;;23.50;99.90;;;;;;5047937;28;20040;-71
2022/07/28 08:29:43;;;;;;;15.85;8.93;;;23.50;99.90;;;;;;5069419;28;20028;-67
2022/07/28 08:32:08;;;;;;;17.40;8.13;;;23.40;99.90;;;;;;5067070;28;20036;-75
2022/07/28 08:34:34;;;;;;;13.73;8.10;;;23.40;99.90;;;;;;5063941;28;20100;-76
2022/07/28 08:37:03;;;;;;;13.25;8.07;;;23.50;99.90;;;;;;5061266;28;20028;-79
2022/07/28 08:39:29;;;;;;;14.88;8.13;;;23.40;99.90;;;;;;5068253;28;20100;-77
2022/07/28 08:42:16;;;;;;;14.32;7.90;;;23.70;99.90;;;;;;5066904;28;20036;-78
2022/07/28 08:44:53;;;;;;;12.93;8.27;;;23.80;99.90;;;;;;5067753;28;20028;-73
2022/07/28 08:47:20;;;;;;;10.98;7.97;;;23.80;99.90;;;;;;5066160;28;20125;-77
2022/07/28 08:49:47;;;;;;;14.10;8.00;;;24.00;99.90;;;;;;5068235;28;20486;-76
2022/07/28 08:52:14;;;;;;;16.58;8.45;;;24.20;99.90;;;;;;5067902;28;20489;-74
2022/07/28 08:54:50;;;;;;;12.10;7.60;;;24.10;99.30;;;;;;5066520;28;20072;-74
2022/07/28 08:57:20;;;;;;;12.27;8.38;;;24.10;99.90;;;;;;5063623;28;20584;-76
2022/07/28 08:59:48;;;;;;;14.25;7.93;;;24.40;99.40;;;;;;5066096;28;20532;-77
2022/07/28 09:02:15;;;;;;;13.00;8.73;;;24.50;99.80;;;;;;5067203;28;20028;-72
2022/07/28 09:04:43;;;;;;;14.45;8.70;;;24.50;98.00;;;;;;5070949;28;20056;-78
2022/07/28 09:07:10;;;;;;;12.50;8.48;;;24.60;98.00;;;;;;5074066;28;20029;-78
2022/07/28 09:09:36;;;;;;;10.38;7.72;;;24.50;97.80;;;;;;5069733;28;20207;-77
2022/07/28 09:12:06;;;;;;;14.70;7.88;;;24.70;98.60;;;;;;5070085;28;20386;-75
2022/07/28 09:14:32;;;;;;;13.32;7.75;;;24.90;97.30;;;;;;5068073;28;20020;-74
2022/07/28 09:17:00;;;;;;;11.90;7.53;;;25.10;98.00;;;;;;5068904;28;20060;-76
2022/07/28 09:19:27;;;;;;;17.23;7.90;;;25.50;97.50;;;;;;5070436;28;20382;-80
2022/07/28 09:21:54;;;;;;;16.92;7.95;;;25.70;96.20;;;;;;5068300;28;20038;-77
2022/07/28 09:24:34;;;;;;;13.73;8.77;;;25.60;95.10;;;;;;5069244;28;20036;-78
2022/07/28 09:27:08;;;;;;;12.43;7.68;;;25.20;95.20;;;;;;5067688;28;20478;-76
2022/07/28 09:29:36;;;;;;;18.52;8.18;;;25.20;95.00;;;;;;5067796;28;20032;-75
2022/07/28 09:32:02;;;;;;;14.00;7.72;;;25.20;94.60;;;;;;5051826;28;20123;-75
2022/07/28 09:34:41;;;;;;;9.65;7.22;;;25.20;94.20;;;;;;5067837;28;20032;-75
2022/07/28 09:37:17;;;;;;;13.75;7.93;;;25.50;94.70;;;;;;5071410;28;20490;-75
2022/07/28 09:39:44;;;;;;;18.83;8.60;;;25.70;94.50;;;;;;5071597;28;20035;-76
2022/07/28 09:42:10;;;;;;;14.98;8.43;;;25.80;93.10;;;;;;5071721;28;20056;-78
2022/07/28 09:44:36;;;;;;;12.80;7.82;;;25.70;92.60;;;;;;5069185;28;20442;-73
2022/07/28 09:47:21;;;;;;;13.63;8.15;;;25.80;94.00;;;;;;5069795;28;20066;-75
2022/07/28 09:49:47;;;;;;;13.23;8.00;;;26.20;93.30;;;;;;5069089;28;20028;-76
2022/07/28 09:52:12;;;;;;;13.32;7.65;;;26.30;92.50;;;;;;5070211;28;20106;-72
2022/07/28 09:54:38;;;;;;;15.60;7.05;;;25.80;92.60;;;;;;5070448;28;20048;-74
2022/07/28 09:57:08;;;;;;;12.30;7.72;;;26.10;93.00;;;;;;5070887;28;20056;-78
2022/07/28 09:59:41;;;;;;;13.13;7.63;;;26.20;91.80;;;;;;5069987;28;20107;-83
2022/07/28 10:02:07;;;;;;;14.57;7.60;;;26.00;90.70;;;;;;5070269;28;20032;-77
2022/07/28 10:04:35;;;;;;;11.38;6.75;;;26.00;92.60;;;;;;5069759;28;20470;-76
2022/07/28 10:07:05;;;;;;;13.57;7.45;;;26.40;92.00;;;;;;5063437;28;20029;-79
2022/07/28 10:09:32;;;;;;;13.73;7.13;;;26.60;90.70;;;;;;5067031;28;20024;-79
2022/07/28 10:12:24;;;;;;;12.20;7.38;;;26.60;89.00;;;;;;5069223;28;20103;-77
2022/07/28 10:14:52;;;;;;;20.92;7.97;;;26.40;89.60;;;;;;5068256;28;20036;-76
2022/07/28 10:17:32;;;;;;;13.98;6.93;;;26.40;89.30;;;;;;5068440;28;20057;-73
2022/07/28 10:20:00;;;;;;;8.98;6.50;;;26.30;90.00;;;;;;5069808;28;20028;-79
2022/07/28 10:22:30;;;;;;;10.98;7.18;;;26.50;90.30;;;;;;5069967;28;20040;-75
2022/07/28 10:24:59;;;;;;;10.10;6.45;;;26.30;89.60;;;;;;5069392;28;20040;-75
2022/07/28 10:27:26;;;;;;;10.00;7.18;;;26.50;88.90;;;;;;5068997;28;20063;-76
2022/07/28 10:29:58;;;;;;;12.50;7.00;;;26.50;89.80;;;;;;5067939;28;20032;-74
2022/07/28 10:32:24;;;;;;;12.35;6.65;;;26.50;88.70;;;;;;5068210;28;20029;-73
2022/07/28 10:34:58;;;;;;;8.68;6.75;;;26.70;88.00;;;;;;5066730;28;20081;-78
2022/07/28 10:37:26;;;;;;;10.30;7.03;;;27.00;85.80;;;;;;5068363;28;20026;-76
2022/07/28 10:40:12;;;;;;;10.93;6.30;;;27.40;86.80;;;;;;5068340;28;20095;-74
2022/07/28 10:42:39;;;;;;;16.95;6.05;;;27.70;83.70;;;;;;5068205;28;20028;-72
2022/07/28 10:45:08;;;;;;;10.85;6.05;;;27.70;79.70;;;;;;5067856;28;20174;-75
2022/07/28 10:47:33;;;;;;;10.65;6.85;;;27.50;79.40;;;;;;5067889;28;20490;-74
2022/07/28 10:50:01;;;;;;;11.50;6.18;;;27.50;83.30;;;;;;5068264;28;20028;-75
2022/07/28 10:52:27;;;;;;;9.40;6.50;;;27.60;81.50;;;;;;5067933;28;20028;-75
2022/07/28 10:55:18;;;;;;;8.73;6.65;;;27.90;81.70;;;;;;5067799;28;20043;-76
2022/07/28 10:58:16;;;;;;;8.55;6.40;;;28.20;79.00;;;;;;5063677;28;20044;-73
2022/07/28 11:00:49;;;;;;;11.10;6.65;;;27.90;78.00;;;;;;5046950;28;20109;-73
2022/07/28 11:03:43;;;;;;;11.30;6.25;;;27.30;78.70;;;;;;5051404;28;20155;-75
2022/07/28 11:06:30;;;;;;;8.60;6.07;;;26.90;81.20;;;;;;5068125;28;20028;-74
2022/07/28 11:08:59;;;;;;;8.18;6.22;;;26.70;81.70;;;;;;5067460;28;20047;-73
2022/07/28 11:11:53;;;;;;;11.63;6.53;;;26.70;82.20;;;;;;5067263;28;20036;-72
2022/07/28 11:14:36;;;;;;;11.35;6.80;;;27.00;81.90;;;;;;5070359;28;20016;-76
2022/07/28 11:17:05;;;;;;;10.32;6.82;;;26.80;79.00;;;;;;5067031;28;20059;-75
2022/07/28 11:19:53;;;;;;;6.88;6.10;;;26.80;80.20;;;;;;5067638;28;20025;-72
2022/07/28 11:22:20;;;;;;;9.82;6.22;;;27.10;82.40;;;;;;5068178;28;20363;-74
2022/07/28 11:25:01;;;;;;;12.68;6.38;;;27.00;80.40;;;;;;5066120;28;20081;-77
2022/07/28 11:27:44;;;;;;;10.15;6.03;;;27.40;81.60;;;;;;5066905;28;20064;-76
2022/07/28 11:30:31;;;;;;;9.07;5.85;;;27.40;78.90;;;;;;5067610;28;20036;-76
2022/07/28 11:32:58;;;;;;;9.20;5.70;;;27.10;81.50;;;;;;5067296;28;20032;-75
2022/07/28 11:35:25;;;;;;;10.00;5.72;;;27.00;77.60;;;;;;5048965;28;20149;-74
2022/07/28 11:37:59;;;;;;;15.18;6.13;;;26.70;77.80;;;;;;5066821;28;20028;-74
2022/07/28 11:40:42;;;;;;;13.55;6.47;;;26.60;79.40;;;;;;5067757;28;20036;-74
2022/07/28 11:43:20;;;;;;;9.52;5.82;;;26.60;77.00;;;;;;5068139;28;20031;-72
2022/07/28 11:46:01;;;;;;;9.88;5.65;;;26.30;77.20;;;;;;5044458;28;20666;-75
2022/07/28 11:48:29;;;;;;;9.45;6.80;;;26.40;77.10;;;;;;5059012;28;20486;-72
2022/07/28 11:51:04;;;;;;;13.60;5.97;;;26.30;80.10;;;;;;5067120;28;20036;-74
2022/07/28 11:53:48;;;;;;;14.60;5.97;;;26.30;79.60;;;;;;5067340;28;20041;-77
2022/07/28 11:56:37;;;;;;;9.20;6.55;;;26.50;80.50;;;;;;5067616;28;20029;-76
2022/07/28 11:59:05;;;;;;;8.15;6.40;;;26.70;77.40;;;;;;5066361;28;20029;-77
2022/07/28 12:01:32;;;;;;;7.70;6.03;;;26.70;78.40;;;;;;5065449;28;20070;-75
2022/07/28 12:03:58;;;;;;;11.60;6.65;;;26.70;76.60;;;;;;5066837;28;20520;-75
2022/07/28 12:06:33;;;;;;;13.48;6.95;;;26.60;78.50;;;;;;5067314;28;20029;-74
2022/07/28 12:09:01;;;;;;;9.07;6.63;;;26.50;78.00;;;;;;5067114;28;20466;-74
2022/07/28 12:11:31;;;;;;;11.40;6.45;;;26.50;76.80;;;;;;5066658;28;20451;-73
2022/07/28 12:13:59;;;;;;;12.20;6.50;;;26.50;77.70;;;;;;5066332;28;20033;-72
2022/07/28 12:16:31;;;;;;;9.52;6.00;;;26.50;78.40;;;;;;5066849;28;20040;-71
2022/07/28 12:18:59;;;;;;;37.08;7.15;;;26.60;77.80;;;;;;5057238;28;20044;-76
2022/07/28 12:21:42;;;;;;;9.90;5.90;;;26.60;76.40;;;;;;5047442;28;20036;-72
2022/07/28 12:24:11;;;;;;;10.85;6.00;;;26.70;74.90;;;;;;5056506;28;20020;-77
2022/07/28 12:26:38;;;;;;;20.40;6.18;;;26.90;78.30;;;;;;5066924;28;20074;-75
2022/07/28 12:29:05;;;;;;;10.57;6.10;;;27.10;78.20;;;;;;5067993;28;20048;-72
2022/07/28 12:31:32;;;;;;;19.90;6.75;;;27.10;76.70;;;;;;5068136;28;20059;-72
2022/07/28 12:34:06;;;;;;;14.98;6.18;;;27.00;75.90;;;;;;5068754;28;20024;-73
2022/07/28 12:36:36;;;;;;;13.15;6.38;;;26.90;78.00;;;;;;5067797;28;20595;-77
2022/07/28 12:39:06;;;;;;;12.07;6.70;;;26.90;76.60;;;;;;5072932;28;20081;-73
2022/07/28 12:41:37;;;;;;;8.37;6.20;;;26.70;77.20;;;;;;5072007;28;20028;-74
2022/07/28 12:44:04;;;;;;;9.68;6.38;;;26.60;80.00;;;;;;5072262;28;20375;-74
2022/07/28 12:46:31;;;;;;;9.07;6.18;;;26.70;77.60;;;;;;5070963;28;20068;-73
2022/07/28 12:48:58;;;;;;;9.55;6.22;;;27.10;76.90;;;;;;5072317;28;20036;-74
2022/07/28 12:51:30;;;;;;;18.80;6.07;;;27.40;77.40;;;;;;5072423;28;20058;-77
2022/07/28 12:53:56;;;;;;;10.60;6.00;;;27.80;74.10;;;;;;5072067;28;20484;-72
2022/07/28 12:56:22;;;;;;;13.50;6.00;;;27.80;74.10;;;;;;5072183;28;20099;-72